East Grip

KL  EN  DA
ASIAQ
Weather Now GREENLAND SURVEY
Updated [WGT/WGST] Temperature [°C] Wind [m/s] Air pressure [hPa] Relative humidity [%] Precipitation [mm]
Present Wind chill Speed Max
27.09 02:00-32,5-45,44,9 ⇒n/a72965n/a
27.09 01:00-30,9-43,14,6 ⇒n/a72967n/a
27.09 00:00-30,4-43,15,2 ⇒n/a72967n/a
26.09 23:00-28,9-40,74,7 ⇒n/a72969n/a
26.09 22:00-29,4-41,34,7 ⇒n/a72969n/a
26.09 21:00-32,5-44,54,2 ⇒n/a72965n/a
26.09 20:00-31,5-43,14,1 ⇒n/a72966n/a
26.09 19:00-30,4-41,74,0 ⇒n/a72967n/a
26.09 18:00-27,7-40,15,5 ⇘n/a72970n/a
26.09 17:00-27,2-38,84,9 ⇒n/a72971n/a
26.09 16:00-27,3-38,64,7 ⇒n/a72970n/a
26.09 15:00-28,8-40,44,5 ⇒n/a72967n/a
26.09 14:00-29,1-40,74,5 ⇒n/a72966n/a
26.09 13:00-28,5-40,44,9 ⇒n/a72967n/a
26.09 12:00-28,5-41,35,8 ⇒n/a72967n/a
26.09 11:00-28,2-40,45,2 ⇘n/a72968n/a
26.09 10:00-29,5-42,86,0 ⇒n/a72966n/a
26.09 09:00-31,9-45,55,7 ⇒n/a72963n/a
26.09 08:00-34,9-47,44,1 ⇒n/a72962n/a
26.09 07:00-34,3-48,05,2 ⇒n/a72963n/a
26.09 06:00-33,9-48,05,6 ⇒n/a72963n/a
26.09 05:00-33,9-47,95,5 ⇒n/a72963n/a
26.09 04:00-33,6-47,85,8 ⇒n/a72964n/a
26.09 03:00-33,4-47,35,5 ⇒n/a72964n/a
26.09 02:00-33,2-47,25,7 ⇒n/a72964n/a
Position: (75.6247,-35.9748)

[Back]